Time;durP1;ratioP1;P1;durP2;ratioP2;P2;SDS_P1;SDS_P2;PMS_P1;PMS_P2;Temp;Humidity;BMP_temperature;BMP_pressure;BME280_temperature;BME280_humidity;BME280_pressure;Samples;Min_cycle;Max_cycle;Signal;HPM_P1;HPM_P2
2022/06/10 00:01:17;;;;;;;3.07;1.30;;;13.70;52.70;;;;;;5047953;28;20538;-76
2022/06/10 00:03:44;;;;;;;1.33;1.23;;;13.80;52.70;;;;;;5059146;28;20176;-76
2022/06/10 00:06:13;;;;;;;4.93;1.30;;;13.80;52.20;;;;;;5052153;28;20646;-77
2022/06/10 00:08:48;;;;;;;1.97;1.10;;;13.90;51.70;;;;;;5058974;28;20593;-78
2022/06/10 00:11:16;;;;;;;1.80;1.30;;;14.00;51.50;;;;;;5074046;28;20179;-79
2022/06/10 00:13:46;;;;;;;4.77;1.67;;;14.20;51.80;;;;;;5038196;28;20173;-81
2022/06/10 00:16:17;;;;;;;2.40;1.10;;;14.30;51.90;;;;;;5041282;28;20909;-77
2022/06/10 00:18:45;;;;;;;1.90;1.10;;;14.40;50.80;;;;;;5064779;28;20228;-78
2022/06/10 00:21:15;;;;;;;10.63;1.40;;;14.50;50.80;;;;;;5056634;28;20187;-79
2022/06/10 00:23:43;;;;;;;3.67;1.27;;;14.60;51.00;;;;;;5034014;28;20636;-75
2022/06/10 00:26:12;;;;;;;2.43;0.90;;;14.40;50.40;;;;;;5052478;28;20224;-73
2022/06/10 00:28:42;;;;;;;1.17;1.07;;;14.50;50.30;;;;;;5035819;28;20639;-76
2022/06/10 00:31:10;;;;;;;2.13;0.90;;;14.50;49.90;;;;;;5038020;28;20647;-77
2022/06/10 00:33:40;;;;;;;1.80;1.10;;;14.70;50.00;;;;;;5033854;28;20165;-79
2022/06/10 00:36:10;;;;;;;2.50;0.90;;;14.70;49.90;;;;;;5063251;28;20654;-74
2022/06/10 00:38:37;;;;;;;2.07;1.10;;;14.80;49.70;;;;;;5039105;28;20179;-81
2022/06/10 00:41:05;;;;;;;2.87;1.10;;;14.80;49.30;;;;;;5039515;28;20208;-80
2022/06/10 00:43:35;;;;;;;1.13;0.93;;;14.90;49.20;;;;;;5047481;28;20171;-80
2022/06/10 00:46:40;;;;;;;1.40;0.90;;;15.00;48.80;;;;;;5072035;28;20217;-78
2022/06/10 00:49:08;;;;;;;2.67;1.10;;;15.00;49.40;;;;;;5027762;28;20753;-77
2022/06/10 00:51:41;;;;;;;2.27;1.43;;;15.20;48.60;;;;;;5033118;28;20270;-78
2022/06/10 00:54:11;;;;;;;1.27;1.10;;;15.20;48.30;;;;;;5053312;28;20215;-77
2022/06/10 00:56:42;;;;;;;1.63;1.00;;;15.30;47.50;;;;;;5060433;28;20224;-78
2022/06/10 00:59:16;;;;;;;2.10;1.13;;;15.40;48.40;;;;;;5055305;28;20212;-77
2022/06/10 01:01:44;;;;;;;1.33;1.00;;;15.60;47.50;;;;;;5033539;28;20176;-78
2022/06/10 01:04:12;;;;;;;1.63;1.00;;;15.70;47.80;;;;;;5051267;28;20189;-81
2022/06/10 01:06:39;;;;;;;1.63;1.00;;;15.80;47.00;;;;;;5063649;28;20179;-79
2022/06/10 01:09:07;;;;;;;2.53;0.90;;;15.90;46.50;;;;;;5044048;28;20299;-72
2022/06/10 01:11:47;;;;;;;1.23;1.00;;;15.90;46.70;;;;;;5045589;28;20189;-81
2022/06/10 01:14:26;;;;;;;4.07;0.90;;;15.80;46.80;;;;;;5053162;28;20175;-79
2022/06/10 01:17:35;;;;;;;1.90;1.03;;;15.90;46.80;;;;;;5044792;28;20181;-81
2022/06/10 01:20:36;;;;;;;3.53;0.90;;;16.00;46.30;;;;;;5056118;28;20237;-86
2022/06/10 01:23:23;;;;;;;3.90;1.00;;;16.20;46.30;;;;;;5065634;28;20179;-78
2022/06/10 01:26:21;;;;;;;2.10;0.90;;;16.30;46.10;;;;;;5039534;28;20629;-76
2022/06/10 01:29:07;;;;;;;3.93;0.97;;;16.50;45.60;;;;;;5040182;28;20551;-76
2022/06/10 01:31:47;;;;;;;2.50;0.87;;;16.50;45.00;;;;;;5050197;28;20183;-80
2022/06/10 01:34:14;;;;;;;2.70;0.90;;;16.70;45.30;;;;;;5033197;28;20183;-76
2022/06/10 01:37:10;;;;;;;3.03;0.83;;;16.70;44.50;;;;;;5042676;28;20183;-77
2022/06/10 01:39:47;;;;;;;2.07;0.70;;;16.70;44.00;;;;;;5055454;28;20282;-79
2022/06/10 01:42:41;;;;;;;0.70;0.70;;;16.80;44.30;;;;;;5064370;28;20179;-80
2022/06/10 01:45:16;;;;;;;1.30;0.90;;;16.80;44.00;;;;;;5049877;28;20270;-77
2022/06/10 01:48:11;;;;;;;1.43;0.90;;;16.90;44.10;;;;;;5052544;28;20686;-78
2022/06/10 01:51:23;;;;;;;1.47;0.70;;;17.20;43.10;;;;;;5043017;28;20199;-73
2022/06/10 01:54:06;;;;;;;10.47;1.00;;;16.90;41.80;;;;;;5031738;28;20188;-75
2022/06/10 01:56:42;;;;;;;4.53;0.87;;;16.80;42.40;;;;;;5032704;28;20687;-73
2022/06/10 01:59:16;;;;;;;1.13;0.70;;;16.70;42.40;;;;;;5032785;28;20531;-81
2022/06/10 02:01:53;;;;;;;1.43;0.80;;;16.90;42.20;;;;;;5032516;28;20178;-77
2022/06/10 02:04:34;;;;;;;3.13;0.73;;;17.00;41.70;;;;;;5032647;28;20249;-77
2022/06/10 02:07:27;;;;;;;1.03;0.77;;;17.30;41.70;;;;;;5062083;28;20190;-78
2022/06/10 02:10:03;;;;;;;5.27;0.70;;;17.40;41.60;;;;;;5052417;28;20208;-80
2022/06/10 02:12:45;;;;;;;0.80;0.60;;;17.40;41.60;;;;;;5055770;28;20190;-74
2022/06/10 02:15:26;;;;;;;2.97;0.70;;;17.50;41.00;;;;;;5053319;28;20245;-76
2022/06/10 02:18:11;;;;;;;3.40;1.10;;;17.40;41.20;;;;;;5050636;28;20282;-79
2022/06/10 02:20:43;;;;;;;0.80;0.80;;;17.70;40.90;;;;;;5043244;28;20207;-80
2022/06/10 02:23:18;;;;;;;2.77;0.80;;;17.80;40.50;;;;;;5052107;28;20652;-76
2022/06/10 02:25:50;;;;;;;3.00;0.70;;;17.70;39.80;;;;;;5067199;28;20356;-76
2022/06/10 02:28:25;;;;;;;2.73;0.70;;;17.70;39.60;;;;;;5044909;28;20248;-78
2022/06/10 02:31:05;;;;;;;0.83;0.70;;;17.50;40.00;;;;;;5032625;28;20216;-75
2022/06/10 02:33:33;;;;;;;1.27;0.70;;;17.40;40.30;;;;;;5047714;28;20199;-74
2022/06/10 02:36:29;;;;;;;0.60;0.60;;;17.50;40.30;;;;;;5041825;28;20587;-76
2022/06/10 02:39:11;;;;;;;0.60;0.60;;;17.80;39.80;;;;;;5032883;28;20684;-76
2022/06/10 02:42:03;;;;;;;0.70;0.70;;;17.60;39.90;;;;;;5039970;28;20643;-73
2022/06/10 02:45:09;;;;;;;3.83;0.70;;;17.30;39.70;;;;;;5040161;28;20512;-74
2022/06/10 02:48:14;;;;;;;3.40;0.80;;;17.40;39.60;;;;;;5060171;28;20172;-77
2022/06/10 02:50:44;;;;;;;3.07;0.50;;;17.40;39.70;;;;;;5030724;28;20220;-76
2022/06/10 02:53:12;;;;;;;0.63;0.63;;;17.30;38.60;;;;;;5036110;28;20200;-74
2022/06/10 02:55:39;;;;;;;1.50;0.70;;;17.20;39.30;;;;;;5035960;28;20528;-74
2022/06/10 03:01:13;;;;;;;0.73;0.70;;;17.50;39.10;;;;;;5036324;28;20715;-76
2022/06/10 03:04:08;;;;;;;0.60;0.60;;;17.40;38.60;;;;;;5035931;28;20180;-80
2022/06/10 03:06:44;;;;;;;1.10;1.00;;;17.60;39.10;;;;;;5035417;28;20634;-75
2022/06/10 03:09:32;;;;;;;3.83;1.00;;;17.70;38.60;;;;;;5046774;28;20261;-73
2022/06/10 03:12:29;;;;;;;0.83;0.70;;;17.80;37.90;;;;;;5038018;28;20680;-77
2022/06/10 03:15:29;;;;;;;1.07;0.70;;;17.80;38.30;;;;;;5027870;28;20218;-79
2022/06/10 03:18:56;;;;;;;1.10;1.00;;;17.70;38.20;;;;;;5035716;28;20172;-74
2022/06/10 03:21:41;;;;;;;2.83;0.83;;;17.70;38.00;;;;;;4993514;28;20285;-79
2022/06/10 03:24:16;;;;;;;2.17;0.83;;;17.80;38.00;;;;;;4993520;28;20767;-78
2022/06/10 03:26:50;;;;;;;2.83;0.70;;;17.90;38.10;;;;;;5020982;28;20220;-78
2022/06/10 03:29:35;;;;;;;0.77;0.67;;;18.00;37.70;;;;;;5035506;28;20267;-76
2022/06/10 03:32:18;;;;;;;0.70;0.70;;;18.10;38.00;;;;;;5035440;28;20517;-81
2022/06/10 03:35:01;;;;;;;1.03;0.73;;;18.20;37.70;;;;;;5035254;28;20180;-73
2022/06/10 03:37:29;;;;;;;7.73;0.70;;;18.30;37.20;;;;;;5046153;28;20210;-73
2022/06/10 03:39:58;;;;;;;4.83;0.50;;;18.50;37.00;;;;;;5055412;28;20270;-78
2022/06/10 03:42:27;;;;;;;0.70;0.70;;;18.30;37.00;;;;;;5074743;28;20181;-77
2022/06/10 03:44:58;;;;;;;1.17;0.60;;;18.60;37.20;;;;;;5057191;28;20188;-74
2022/06/10 03:47:30;;;;;;;1.23;0.57;;;18.50;37.30;;;;;;5049074;28;20231;-80
2022/06/10 03:50:06;;;;;;;2.40;0.60;;;18.80;37.00;;;;;;5034950;28;20236;-74
2022/06/10 03:52:37;;;;;;;4.00;0.50;;;18.60;37.50;;;;;;5038289;28;20176;-74
2022/06/10 03:55:06;;;;;;;0.97;0.70;;;18.80;37.20;;;;;;5044424;28;20183;-76
2022/06/10 03:57:34;;;;;;;0.63;0.50;;;18.80;37.30;;;;;;5054591;28;20270;-77
2022/06/10 04:00:02;;;;;;;1.00;0.60;;;18.30;36.50;;;;;;5071698;28;20208;-75
2022/06/10 04:02:29;;;;;;;0.77;0.57;;;18.30;37.20;;;;;;5053331;28;20267;-73
2022/06/10 04:04:57;;;;;;;2.20;0.70;;;18.60;37.00;;;;;;5041571;28;20191;-75
2022/06/10 04:07:24;;;;;;;1.53;0.80;;;18.90;36.10;;;;;;5034600;28;20184;-76
2022/06/10 04:09:52;;;;;;;2.40;0.67;;;19.00;35.60;;;;;;5050820;28;20601;-79
2022/06/10 04:12:21;;;;;;;0.80;0.70;;;18.70;36.50;;;;;;5055375;28;20182;-77
2022/06/10 04:14:49;;;;;;;0.60;0.60;;;18.90;36.90;;;;;;5063042;28;20225;-79
2022/06/10 04:17:17;;;;;;;1.43;0.70;;;19.10;36.10;;;;;;5051952;28;20184;-76
2022/06/10 04:19:44;;;;;;;1.33;0.60;;;19.10;35.50;;;;;;5057430;28;20183;-82
2022/06/10 04:22:12;;;;;;;0.67;0.60;;;19.20;35.70;;;;;;5050816;28;20188;-76
2022/06/10 04:24:40;;;;;;;0.60;0.60;;;19.20;35.80;;;;;;5060109;28;20187;-76
2022/06/10 04:27:07;;;;;;;1.40;0.60;;;19.20;35.70;;;;;;5038201;28;20225;-79
2022/06/10 04:29:35;;;;;;;1.17;0.70;;;19.70;35.60;;;;;;5064134;28;20570;-76
2022/06/10 04:32:02;;;;;;;0.63;0.63;;;19.50;35.20;;;;;;5064837;28;20641;-76
2022/06/10 04:34:30;;;;;;;1.23;0.73;;;19.40;35.50;;;;;;5036006;28;20188;-78
2022/06/10 04:36:57;;;;;;;0.83;0.67;;;19.30;35.40;;;;;;5043891;28;20181;-76
2022/06/10 04:39:24;;;;;;;2.40;0.60;;;19.20;36.10;;;;;;5046486;28;20191;-76
2022/06/10 04:41:53;;;;;;;0.70;0.70;;;19.30;36.10;;;;;;5037846;28;20270;-79
2022/06/10 04:44:21;;;;;;;0.67;0.60;;;19.50;35.80;;;;;;5052650;28;20203;-76
2022/06/10 04:46:48;;;;;;;0.50;0.50;;;19.70;35.20;;;;;;5042195;28;20180;-78
2022/06/10 04:49:16;;;;;;;0.70;0.50;;;18.80;35.60;;;;;;5033755;28;20591;-78
2022/06/10 04:51:43;;;;;;;1.93;0.70;;;18.80;35.80;;;;;;5031983;28;20524;-77
2022/06/10 04:54:11;;;;;;;0.93;0.70;;;19.00;35.80;;;;;;5033148;28;20322;-78
2022/06/10 04:56:39;;;;;;;1.90;0.60;;;19.00;35.70;;;;;;5032899;28;20173;-76
2022/06/10 04:59:06;;;;;;;0.90;0.60;;;18.80;35.40;;;;;;5032889;28;20248;-76
2022/06/10 05:01:34;;;;;;;0.60;0.60;;;18.80;36.10;;;;;;5038093;28;20206;-77
2022/06/10 05:04:01;;;;;;;1.70;0.60;;;18.60;35.90;;;;;;5037328;28;20181;-80
2022/06/10 05:06:29;;;;;;;0.90;0.70;;;18.80;35.50;;;;;;5031708;28;20191;-79
2022/06/10 05:08:56;;;;;;;0.63;0.50;;;18.90;35.30;;;;;;5041490;28;20172;-75
2022/06/10 05:11:24;;;;;;;1.67;0.70;;;18.90;34.80;;;;;;5047639;28;20697;-75
2022/06/10 05:13:52;;;;;;;1.80;0.70;;;18.90;34.90;;;;;;5033275;28;20269;-75
2022/06/10 05:16:19;;;;;;;1.47;0.70;;;18.60;35.30;;;;;;5032436;28;20189;-80
2022/06/10 05:18:47;;;;;;;1.00;0.90;;;18.30;35.70;;;;;;5032596;28;20591;-78
2022/06/10 05:21:14;;;;;;;0.50;0.50;;;18.50;35.70;;;;;;5033038;28;20176;-77
2022/06/10 05:23:46;;;;;;;0.60;0.60;;;18.60;35.70;;;;;;5033080;28;20175;-79
2022/06/10 05:26:15;;;;;;;0.50;0.50;;;18.90;35.10;;;;;;5030755;28;20299;-77
2022/06/10 05:28:44;;;;;;;3.13;0.80;;;19.10;34.60;;;;;;5033297;28;20615;-75
2022/06/10 05:31:12;;;;;;;3.87;0.70;;;18.70;34.60;;;;;;5033040;28;20193;-74
2022/06/10 05:36:25;;;;;;;0.60;0.60;;;18.30;36.00;;;;;;5032909;28;20207;-77
2022/06/10 05:38:52;;;;;;;1.70;0.90;;;18.20;36.10;;;;;;5040880;28;20236;-77
2022/06/10 05:44:06;;;;;;;1.27;0.70;;;18.40;36.30;;;;;;5033005;28;20722;-79
2022/06/10 05:46:33;;;;;;;4.07;0.60;;;18.30;35.90;;;;;;5032973;28;20177;-73
2022/06/10 05:49:01;;;;;;;0.40;0.40;;;18.40;36.00;;;;;;5033017;28;20219;-79
2022/06/10 05:51:28;;;;;;;0.80;0.50;;;18.30;36.30;;;;;;5039013;28;20187;-79
2022/06/10 05:53:55;;;;;;;2.27;0.77;;;18.70;35.80;;;;;;5033016;28;20177;-79
2022/06/10 05:56:23;;;;;;;1.50;0.70;;;18.80;35.90;;;;;;5032714;28;20198;-80
2022/06/10 05:58:51;;;;;;;0.70;0.70;;;18.50;36.40;;;;;;5045502;28;20202;-75
2022/06/10 06:01:18;;;;;;;0.83;0.70;;;18.40;36.30;;;;;;5051940;28;20210;-81
2022/06/10 06:03:45;;;;;;;0.80;0.80;;;18.40;36.50;;;;;;5052162;28;20237;-78
2022/06/10 06:06:13;;;;;;;0.80;0.70;;;17.80;37.40;;;;;;5048075;28;20233;-75
2022/06/10 06:08:41;;;;;;;0.97;0.70;;;17.00;39.20;;;;;;5046954;28;20259;-77
2022/06/10 06:11:09;;;;;;;1.43;0.70;;;16.60;40.10;;;;;;5032571;28;20190;-80
2022/06/10 06:13:36;;;;;;;1.00;0.60;;;16.30;40.90;;;;;;5034915;28;20210;-76
2022/06/10 06:16:04;;;;;;;2.13;1.63;;;16.40;40.80;;;;;;5032511;28;20647;-77
2022/06/10 06:18:32;;;;;;;2.53;0.70;;;16.20;41.20;;;;;;5031180;28;20187;-78
2022/06/10 06:20:59;;;;;;;2.00;0.90;;;16.20;41.60;;;;;;5031332;28;20187;-72
2022/06/10 06:23:27;;;;;;;1.23;0.80;;;16.00;41.70;;;;;;5032233;28;20214;-76
2022/06/10 06:25:54;;;;;;;0.70;0.70;;;15.80;42.20;;;;;;5035016;28;20228;-73
2022/06/10 06:28:22;;;;;;;3.37;0.70;;;15.80;42.00;;;;;;5036827;28;20184;-73
2022/06/10 06:30:49;;;;;;;0.90;0.70;;;15.50;42.60;;;;;;5051080;28;20222;-79
2022/06/10 06:33:17;;;;;;;0.87;0.80;;;15.40;43.00;;;;;;5050658;28;20646;-72
2022/06/10 06:35:50;;;;;;;1.93;1.00;;;15.30;43.10;;;;;;5036495;28;20173;-79
2022/06/10 06:38:18;;;;;;;1.57;0.80;;;15.20;43.30;;;;;;5039535;28;20181;-78
2022/06/10 06:40:45;;;;;;;0.77;0.70;;;15.20;44.00;;;;;;5044746;28;20230;-72
2022/06/10 06:43:12;;;;;;;0.70;0.70;;;15.10;43.60;;;;;;5038685;28;20188;-77
2022/06/10 06:45:40;;;;;;;1.07;0.73;;;15.00;44.00;;;;;;5036463;28;21018;-72
2022/06/10 06:48:10;;;;;;;1.17;0.70;;;15.00;43.80;;;;;;5036028;28;20179;-73
2022/06/10 06:50:43;;;;;;;1.60;0.80;;;14.90;44.10;;;;;;5036205;28;20212;-83
2022/06/10 06:53:11;;;;;;;0.60;0.60;;;14.80;44.50;;;;;;5034673;28;20200;-76
2022/06/10 06:55:40;;;;;;;0.73;0.70;;;14.80;44.60;;;;;;5036287;28;20203;-76
2022/06/10 06:58:12;;;;;;;2.10;0.80;;;14.80;44.80;;;;;;5035957;28;20189;-76
2022/06/10 07:00:39;;;;;;;0.60;0.60;;;14.70;45.30;;;;;;5036245;28;20173;-73
2022/06/10 07:03:07;;;;;;;1.40;0.80;;;14.70;45.50;;;;;;5049514;28;20238;-73
2022/06/10 07:05:35;;;;;;;2.10;0.87;;;14.60;45.40;;;;;;5043922;28;20203;-73
2022/06/10 07:08:03;;;;;;;0.80;0.80;;;14.60;45.70;;;;;;5037052;28;20180;-79
2022/06/10 07:10:31;;;;;;;1.53;0.90;;;14.50;45.90;;;;;;5056357;28;20204;-78
2022/06/10 07:12:58;;;;;;;1.90;0.67;;;14.40;46.30;;;;;;5041636;28;20184;-75
2022/06/10 07:15:26;;;;;;;3.17;0.83;;;14.40;46.50;;;;;;5035979;28;20180;-79
2022/06/10 07:17:53;;;;;;;1.00;0.90;;;14.30;46.80;;;;;;5035865;28;20204;-86
2022/06/10 07:20:30;;;;;;;2.67;0.93;;;14.30;47.20;;;;;;5035578;28;20539;-79
2022/06/10 07:22:59;;;;;;;1.00;0.90;;;14.20;47.60;;;;;;5035532;28;20180;-85
2022/06/10 07:25:28;;;;;;;1.47;0.90;;;14.10;47.80;;;;;;5035801;28;20213;-81
2022/06/10 07:27:56;;;;;;;0.80;0.80;;;14.00;48.30;;;;;;5036073;28;20650;-83
2022/06/10 07:30:31;;;;;;;1.40;1.00;;;14.00;48.30;;;;;;5044964;28;20334;-82
2022/06/10 07:32:59;;;;;;;1.17;1.07;;;14.00;48.50;;;;;;5056675;28;20186;-79
2022/06/10 07:35:28;;;;;;;1.73;1.17;;;13.90;49.10;;;;;;5039641;28;20769;-80
2022/06/10 07:37:57;;;;;;;1.73;1.20;;;13.80;48.70;;;;;;5035606;28;20607;-81
2022/06/10 07:43:25;;;;;;;1.20;1.10;;;13.80;49.90;;;;;;5055907;28;20183;-80
2022/06/10 07:45:53;;;;;;;1.10;1.10;;;13.70;49.80;;;;;;5046620;28;20200;-88
2022/06/10 07:48:21;;;;;;;1.33;1.20;;;13.70;49.20;;;;;;5035089;28;20237;-82
2022/06/10 07:50:50;;;;;;;1.50;1.40;;;13.70;49.60;;;;;;5035236;28;20212;-84
2022/06/10 07:53:18;;;;;;;1.97;1.57;;;13.60;49.80;;;;;;5033555;28;20176;-76
2022/06/10 07:55:46;;;;;;;2.30;1.50;;;13.50;50.00;;;;;;5035446;28;20177;-83
2022/06/10 07:58:16;;;;;;;1.47;1.30;;;13.50;49.70;;;;;;5034521;28;20196;-87
2022/06/10 08:00:46;;;;;;;1.40;1.10;;;13.50;49.80;;;;;;5054380;28;20693;-78
2022/06/10 08:03:13;;;;;;;2.07;1.37;;;13.50;49.60;;;;;;5063652;28;20183;-82
2022/06/10 08:05:41;;;;;;;3.90;1.40;;;13.50;49.90;;;;;;5064180;28;20238;-81
2022/06/10 08:08:12;;;;;;;1.77;1.10;;;13.50;49.80;;;;;;5036698;28;20181;-81
2022/06/10 08:10:39;;;;;;;2.10;1.20;;;13.50;48.90;;;;;;5054883;28;20680;-78
2022/06/10 08:13:07;;;;;;;1.60;1.20;;;13.50;49.20;;;;;;5053416;28;20652;-79
2022/06/10 08:15:36;;;;;;;1.20;1.10;;;13.40;49.50;;;;;;5048307;28;20176;-82
2022/06/10 08:18:05;;;;;;;1.20;1.10;;;13.40;49.70;;;;;;5034038;28;20169;-87
2022/06/10 08:23:26;;;;;;;1.00;1.00;;;13.30;50.00;;;;;;5034459;28;20725;-79
2022/06/10 08:25:54;;;;;;;2.57;1.07;;;13.30;49.80;;;;;;5036118;28;20263;-77
2022/06/10 08:28:23;;;;;;;2.77;1.20;;;13.30;49.70;;;;;;5034359;28;20181;-78
2022/06/10 08:30:50;;;;;;;1.30;1.20;;;13.30;49.90;;;;;;5032893;28;20212;-78
2022/06/10 08:33:18;;;;;;;1.60;1.33;;;13.20;50.10;;;;;;5033446;28;20222;-74
2022/06/10 08:35:49;;;;;;;1.63;1.40;;;13.20;50.20;;;;;;5041258;28;20226;-81
2022/06/10 08:38:17;;;;;;;1.00;1.00;;;13.20;49.90;;;;;;5042030;28;20561;-81
2022/06/10 08:41:05;;;;;;;1.40;1.30;;;13.20;50.00;;;;;;5034070;28;20214;-82
2022/06/10 08:43:47;;;;;;;2.10;1.10;;;13.20;50.40;;;;;;5036599;28;20690;-83
2022/06/10 08:46:18;;;;;;;1.23;1.10;;;13.10;50.60;;;;;;5047065;28;20177;-79
2022/06/10 08:49:10;;;;;;;1.13;1.03;;;13.00;50.80;;;;;;5036713;28;20183;-76
2022/06/10 08:51:49;;;;;;;2.20;1.07;;;13.00;50.70;;;;;;5033713;28;20189;-78
2022/06/10 08:54:36;;;;;;;1.73;1.37;;;13.10;50.60;;;;;;5031574;28;20188;-77
2022/06/10 08:57:20;;;;;;;1.90;1.10;;;13.00;50.60;;;;;;5033793;28;20238;-80
2022/06/10 08:59:49;;;;;;;2.80;1.10;;;13.00;50.80;;;;;;5034020;28;20165;-82
2022/06/10 09:02:33;;;;;;;1.50;1.33;;;12.90;51.20;;;;;;5047964;28;20179;-77
2022/06/10 09:05:06;;;;;;;2.27;1.73;;;12.90;51.30;;;;;;5045701;28;20176;-82
2022/06/10 09:07:51;;;;;;;1.67;1.57;;;12.80;51.60;;;;;;5040774;28;20172;-80
2022/06/10 09:10:28;;;;;;;1.83;1.50;;;12.80;51.80;;;;;;5033398;28;20224;-80
2022/06/10 09:13:16;;;;;;;2.57;1.77;;;12.70;52.00;;;;;;5033262;28;20203;-79
2022/06/10 09:16:04;;;;;;;1.67;1.30;;;12.70;51.90;;;;;;5045128;28;20655;-78
2022/06/10 09:18:57;;;;;;;3.70;1.37;;;12.70;52.00;;;;;;5063878;28;20579;-78
2022/06/10 09:21:44;;;;;;;3.77;1.37;;;12.80;51.90;;;;;;5060742;28;20182;-80
2022/06/10 09:24:24;;;;;;;1.90;1.40;;;12.80;52.00;;;;;;5031867;28;20183;-80
2022/06/10 09:27:12;;;;;;;3.43;1.43;;;12.70;52.10;;;;;;5033198;28;20232;-81
2022/06/10 09:29:40;;;;;;;2.03;1.40;;;12.70;52.10;;;;;;5033732;28;20211;-75
2022/06/10 09:32:31;;;;;;;2.47;1.20;;;12.70;52.20;;;;;;5048742;28;20195;-83
2022/06/10 09:35:23;;;;;;;1.93;1.40;;;12.70;52.20;;;;;;5033360;28;20181;-78
2022/06/10 09:38:08;;;;;;;2.70;1.57;;;12.60;52.30;;;;;;5060402;28;20664;-76
2022/06/10 09:40:50;;;;;;;1.40;1.30;;;12.60;52.30;;;;;;5048686;28;20534;-85
2022/06/10 09:43:27;;;;;;;1.87;1.23;;;12.60;52.50;;;;;;5056645;28;20176;-84
2022/06/10 09:46:39;;;;;;;6.13;1.43;;;12.60;52.30;;;;;;5071820;28;20236;-87
2022/06/10 09:49:15;;;;;;;3.10;1.43;;;12.60;52.50;;;;;;4980331;28;20196;-81
2022/06/10 09:52:20;;;;;;;1.70;1.37;;;12.50;52.70;;;;;;4983723;28;20278;-82
2022/06/10 09:55:24;;;;;;;3.73;1.40;;;12.50;52.70;;;;;;5025927;28;20192;-84
2022/06/10 09:58:21;;;;;;;3.47;1.33;;;12.50;52.60;;;;;;5033137;28;20204;-81
2022/06/10 10:01:00;;;;;;;2.50;1.50;;;12.40;53.10;;;;;;5040886;28;20643;-78
2022/06/10 10:03:31;;;;;;;1.50;1.40;;;12.40;53.10;;;;;;5037716;28;20212;-80
2022/06/10 10:06:26;;;;;;;1.70;1.60;;;12.40;53.00;;;;;;5039787;28;20185;-81
2022/06/10 10:09:11;;;;;;;1.53;1.33;;;12.40;53.10;;;;;;5037388;28;20184;-77
2022/06/10 10:11:49;;;;;;;2.70;1.30;;;12.30;53.00;;;;;;5033541;28;20245;-82
2022/06/10 10:14:46;;;;;;;1.73;1.40;;;12.30;53.30;;;;;;5033045;28;20582;-84
2022/06/10 10:17:28;;;;;;;1.70;1.43;;;12.20;53.70;;;;;;5037035;28;20181;-81
2022/06/10 10:20:14;;;;;;;2.00;1.40;;;12.20;53.70;;;;;;5033561;28;20557;-80
2022/06/10 10:22:48;;;;;;;1.80;1.50;;;12.20;53.80;;;;;;5041185;28;20176;-85
2022/06/10 10:25:19;;;;;;;1.50;1.40;;;12.20;53.70;;;;;;5045014;28;20705;-78
2022/06/10 10:27:48;;;;;;;1.60;1.50;;;12.20;53.80;;;;;;5033243;28;20260;-79
2022/06/10 10:30:22;;;;;;;3.20;1.53;;;12.20;53.80;;;;;;5040932;28;20206;-82
2022/06/10 10:32:58;;;;;;;2.07;1.63;;;12.10;54.20;;;;;;5041102;28;20183;-82
2022/06/10 10:35:37;;;;;;;3.07;1.90;;;12.00;54.50;;;;;;5040332;28;20199;-82
2022/06/10 10:38:09;;;;;;;2.20;1.70;;;11.90;54.40;;;;;;5051180;28;20178;-83
2022/06/10 10:40:43;;;;;;;2.10;1.80;;;11.90;54.40;;;;;;5041928;28;20169;-82
2022/06/10 10:43:22;;;;;;;2.87;1.90;;;12.00;54.50;;;;;;5037780;28;20184;-83
2022/06/10 10:46:22;;;;;;;1.77;1.67;;;11.90;54.80;;;;;;5044391;28;20536;-81
2022/06/10 10:48:50;;;;;;;1.70;1.60;;;11.90;54.80;;;;;;5032664;28;20172;-78
2022/06/10 10:51:25;;;;;;;3.43;1.50;;;11.90;54.80;;;;;;5033051;28;20269;-82
2022/06/10 10:54:07;;;;;;;6.90;1.73;;;11.90;54.90;;;;;;5052624;28;20175;-78
2022/06/10 10:56:38;;;;;;;1.30;1.20;;;11.90;55.00;;;;;;5038719;28;20239;-80
2022/06/10 10:59:21;;;;;;;2.23;1.60;;;11.80;55.20;;;;;;5045572;28;20312;-87
2022/06/10 11:01:51;;;;;;;1.63;1.47;;;11.80;55.30;;;;;;5030970;28;20181;-85
2022/06/10 11:04:35;;;;;;;1.87;1.43;;;11.80;55.80;;;;;;5046652;28;20271;-82
2022/06/10 11:07:22;;;;;;;1.70;1.60;;;11.70;56.10;;;;;;5031674;28;20241;-85
2022/06/10 11:10:05;;;;;;;2.20;1.83;;;11.70;55.90;;;;;;5033203;28;20196;-79
2022/06/10 11:12:34;;;;;;;3.50;2.30;;;11.60;56.50;;;;;;5047655;28;20177;-81
2022/06/10 11:15:15;;;;;;;3.20;2.33;;;11.60;56.60;;;;;;5046450;28;20188;-82
2022/06/10 11:17:46;;;;;;;4.83;2.87;;;11.50;56.60;;;;;;5035895;28;20190;-82
2022/06/10 11:20:25;;;;;;;3.07;2.20;;;11.50;56.80;;;;;;5035815;28;20494;-77
2022/06/10 11:23:22;;;;;;;4.90;2.10;;;11.50;56.90;;;;;;5042988;28;20604;-78
2022/06/10 11:26:07;;;;;;;5.27;2.10;;;11.40;57.60;;;;;;5063003;28;20307;-85
2022/06/10 11:28:41;;;;;;;2.93;2.40;;;11.40;57.80;;;;;;5035485;28;20585;-80
2022/06/10 11:31:28;;;;;;;2.40;2.00;;;11.40;58.10;;;;;;5050754;28;20303;-79
2022/06/10 11:34:00;;;;;;;2.87;1.97;;;11.30;58.20;;;;;;5044268;28;20653;-79
2022/06/10 11:36:46;;;;;;;1.97;1.77;;;11.30;58.70;;;;;;5039751;28;20172;-81
2022/06/10 11:39:22;;;;;;;2.10;1.70;;;11.30;58.50;;;;;;5053185;28;20574;-87
2022/06/10 11:42:17;;;;;;;3.17;1.67;;;11.30;58.30;;;;;;5060271;28;20173;-77
2022/06/10 11:45:16;;;;;;;2.07;1.53;;;11.30;58.90;;;;;;5050701;28;20280;-80
2022/06/10 11:48:13;;;;;;;1.70;1.60;;;11.30;58.80;;;;;;5034017;28;20666;-80
2022/06/10 11:51:02;;;;;;;2.93;1.70;;;11.30;58.90;;;;;;5025394;28;20760;-80
2022/06/10 11:53:32;;;;;;;2.90;1.50;;;11.20;59.30;;;;;;5048637;28;20204;-80
2022/06/10 12:01:47;;;;;;;2.87;1.60;;;11.10;60.00;;;;;;5038168;28;20246;-84
2022/06/10 12:04:29;;;;;;;2.77;1.60;;;11.00;60.90;;;;;;5043702;28;20267;-81
2022/06/10 12:07:10;;;;;;;3.80;1.90;;;11.00;60.50;;;;;;5038433;28;20184;-80
2022/06/10 12:09:52;;;;;;;3.43;1.80;;;11.00;60.70;;;;;;5036125;28;20243;-81
2022/06/10 12:12:23;;;;;;;2.03;1.57;;;11.00;61.00;;;;;;5035279;28;20204;-78
2022/06/10 12:14:58;;;;;;;2.07;1.40;;;11.00;61.30;;;;;;5053104;28;20187;-81
2022/06/10 12:17:43;;;;;;;4.20;1.50;;;10.90;61.60;;;;;;5037965;28;20202;-80
2022/06/10 12:20:32;;;;;;;2.20;1.47;;;11.00;61.30;;;;;;5035568;28;20177;-77
2022/06/10 12:23:06;;;;;;;2.10;1.40;;;11.00;61.40;;;;;;5043475;28;20262;-78
2022/06/10 12:25:47;;;;;;;1.73;1.60;;;11.00;61.30;;;;;;5052856;28;20689;-79
2022/06/10 12:28:24;;;;;;;2.20;1.80;;;11.00;61.40;;;;;;5048185;28;20263;-80
2022/06/10 12:31:00;;;;;;;6.10;1.60;;;11.00;61.40;;;;;;5035527;28;20200;-83
2022/06/10 12:33:34;;;;;;;2.27;1.40;;;11.00;61.30;;;;;;5034561;28;20175;-79
2022/06/10 12:36:02;;;;;;;1.90;1.80;;;10.90;62.00;;;;;;5049193;28;20185;-78
2022/06/10 12:38:38;;;;;;;1.70;1.60;;;10.90;61.90;;;;;;5051549;28;20176;-79
2022/06/10 12:41:20;;;;;;;2.13;1.50;;;10.80;62.30;;;;;;5037697;28;20227;-80
2022/06/10 12:44:02;;;;;;;2.33;1.77;;;10.80;62.70;;;;;;5034517;28;20646;-78
2022/06/10 12:46:39;;;;;;;1.70;1.40;;;10.80;63.00;;;;;;5037159;28;20179;-80
2022/06/10 12:49:30;;;;;;;2.60;1.60;;;10.70;62.80;;;;;;5034070;28;20188;-80
2022/06/10 12:52:19;;;;;;;1.90;1.60;;;10.70;63.10;;;;;;5051998;28;20696;-88
2022/06/10 12:55:27;;;;;;;1.97;1.60;;;10.70;63.40;;;;;;5037649;28;20731;-80
2022/06/10 12:57:55;;;;;;;1.90;1.50;;;10.70;63.60;;;;;;5037179;28;20211;-78
2022/06/10 13:00:22;;;;;;;2.33;1.80;;;10.70;63.60;;;;;;5048062;28;20212;-80
2022/06/10 13:02:56;;;;;;;1.43;1.30;;;10.70;64.00;;;;;;5040417;28;20187;-79
2022/06/10 13:05:41;;;;;;;3.67;1.40;;;10.60;64.10;;;;;;5033357;28;20262;-77
2022/06/10 13:08:35;;;;;;;3.13;1.60;;;10.60;64.10;;;;;;5035778;28;20172;-81
2022/06/10 13:11:06;;;;;;;2.03;1.60;;;10.70;64.00;;;;;;5042037;28;20219;-83
2022/06/10 13:13:35;;;;;;;2.53;1.50;;;10.80;63.80;;;;;;5033445;28;20180;-82
2022/06/10 13:16:26;;;;;;;1.77;1.47;;;10.80;63.70;;;;;;5034069;28;20261;-81
2022/06/10 13:18:59;;;;;;;1.43;1.30;;;10.80;63.80;;;;;;5047768;28;20195;-86
2022/06/10 13:21:32;;;;;;;1.40;1.30;;;10.80;63.80;;;;;;5052964;28;20539;-81
2022/06/10 13:24:12;;;;;;;1.47;1.30;;;10.80;63.80;;;;;;5036678;28;20704;-86
2022/06/10 13:26:40;;;;;;;2.13;1.33;;;10.90;63.70;;;;;;5033440;28;20235;-86
2022/06/10 13:29:17;;;;;;;1.30;1.20;;;10.90;64.00;;;;;;5033298;28;20172;-80
2022/06/10 13:31:53;;;;;;;1.70;1.23;;;10.90;64.10;;;;;;5048268;28;20195;-85
2022/06/10 13:34:30;;;;;;;1.20;1.10;;;10.80;64.30;;;;;;5031635;28;20313;-80
2022/06/10 13:37:18;;;;;;;1.93;1.30;;;10.80;64.50;;;;;;5041727;28;20232;-80
2022/06/10 13:39:48;;;;;;;1.30;1.17;;;10.80;64.60;;;;;;5046288;28;20334;-87
2022/06/10 13:42:30;;;;;;;1.50;1.40;;;10.70;64.90;;;;;;5039358;28;20184;-80
2022/06/10 13:45:23;;;;;;;1.50;1.40;;;10.70;64.90;;;;;;5036231;28;20206;-81
2022/06/10 13:48:00;;;;;;;1.40;1.30;;;10.70;65.10;;;;;;5043459;28;20534;-80
2022/06/10 13:53:03;;;;;;;1.40;1.30;;;10.60;65.60;;;;;;5033074;28;20184;-84
2022/06/10 13:55:39;;;;;;;1.70;1.60;;;10.60;66.00;;;;;;5033523;28;20210;-85